Selea, Pennsylvania
Current Conditions -  °F | °C
As of 2:53 PM on Wednesday 17 Dec 2014 (Local Time) from KAOO Reporting Station
Overcast Overcast  
Wind Chill: 25°   Ceiling: 2900
Heat Index: 35°   Visibility: 10mi
Dew Point: 26°   Wind: 16mph
Humidity: 70%   Direction: 280°W
Pressure: 29.97"   Gusts: 24mph
Location:  40.1654°N, 77.9842°W
Report Text: KAOO 171953Z AUTO 28014G21KT 10SM OVC029 02/M03 A2997 RMK AO2 SLP159 T00171033
Loading
Personal Weather Stations






























Interactive Weather Map New forecast layout! Learn more

10-Day Weather Forecast

Advertisements
Track Severe Weather on mobile